Time;durP1;ratioP1;P1;durP2;ratioP2;P2;SDS_P1;SDS_P2;PMS_P1;PMS_P2;Temp;Humidity;BMP_temperature;BMP_pressure;BME280_temperature;BME280_humidity;BME280_pressure;Samples;Min_cycle;Max_cycle;Signal;HPM_P1;HPM_P2
2023/06/10 00:02:22;;;;;;;20.02;16.90;;;;;;;;;;5070293;28;20073;-59
2023/06/10 00:04:48;;;;;;;21.02;18.20;;;;;;;;;;5070607;28;20040;-54
2023/06/10 00:07:14;;;;;;;20.20;18.00;;;;;;;;;;5070505;28;20025;-58
2023/06/10 00:09:40;;;;;;;20.52;18.13;;;;;;;;;;5070604;28;20525;-56
2023/06/10 00:12:09;;;;;;;19.42;17.33;;;487.00;2380.80;;;;;;5070667;28;20150;-59
2023/06/10 00:14:40;;;;;;;21.77;19.23;;;486.70;2380.80;;;;;;5070401;28;20482;-55
2023/06/10 00:17:09;;;;;;;23.08;18.25;;;;;;;;;;5070120;28;20033;-58
2023/06/10 00:19:36;;;;;;;23.75;19.45;;;;;;;;;;5070241;28;20043;-55
2023/06/10 00:22:02;;;;;;;21.70;19.23;;;;;;;;;;5070869;28;20458;-55
2023/06/10 00:24:29;;;;;;;24.13;18.73;;;;;;;;;;5069924;28;20068;-55
2023/06/10 00:26:55;;;;;;;20.73;18.63;;;;;;;;;;5070531;28;20027;-55
2023/06/10 00:29:21;;;;;;;21.40;19.10;;;;;;;;;;5070375;28;20021;-55
2023/06/10 00:31:47;;;;;;;19.92;17.23;;;;;;;;;;5070418;28;20017;-56
2023/06/10 00:34:13;;;;;;;20.77;18.17;;;;;;;;;;5070374;28;20028;-54
2023/06/10 00:36:39;;;;;;;19.88;17.67;;;;;;;;;;5070238;28;20036;-57
2023/06/10 00:39:05;;;;;;;19.45;17.20;;;;;;;;;;5069918;28;20398;-55
2023/06/10 00:41:33;;;;;;;20.13;18.05;;;;;;;;;;5070512;28;20024;-55
2023/06/10 00:44:00;;;;;;;22.65;19.23;;;;;;;;;;5069876;28;20032;-55
2023/06/10 00:46:26;;;;;;;19.52;17.45;;;;;;;;;;5070046;28;20025;-59
2023/06/10 00:48:53;;;;;;;23.80;18.73;;;;;;;;;;5070182;28;20024;-55
2023/06/10 00:51:19;;;;;;;20.98;18.77;;;;;;;;;;5069731;28;20021;-55
2023/06/10 00:53:45;;;;;;;20.83;17.65;;;;;;;;;;5069337;28;20023;-55
2023/06/10 00:56:11;;;;;;;19.45;17.08;;;;;;;;;;5070240;28;20067;-55
2023/06/10 00:58:37;;;;;;;20.83;17.67;;;;;;;;;;5069795;28;20044;-55
2023/06/10 01:01:06;;;;;;;23.20;18.02;;;;;;;;;;5070118;28;20028;-57
2023/06/10 01:03:36;;;;;;;19.80;16.67;;;;;;;;;;5069560;28;20119;-55
2023/06/10 01:06:21;;;;;;;19.45;17.35;;;;;;;;;;5069655;28;20483;-59
2023/06/10 01:08:53;;;;;;;20.15;18.05;;;;;;;;;;5068917;28;20100;-55
2023/06/10 01:11:21;;;;;;;21.50;16.50;;;;;;;;;;5068981;28;20025;-59
2023/06/10 01:13:51;;;;;;;20.02;17.35;;;;;;;;;;5056180;28;20490;-57
2023/06/10 01:16:17;;;;;;;20.52;17.65;;;;;;;;;;5069295;28;20595;-55
2023/06/10 01:18:44;;;;;;;19.95;17.80;;;;;;;;;;5069998;28;20029;-54
2023/06/10 01:21:14;;;;;;;17.60;15.75;;;;;;;;;;5069323;28;20024;-55
2023/06/10 01:23:40;;;;;;;20.20;17.55;;;;;;;;;;5069267;28;20021;-53
2023/06/10 01:26:09;;;;;;;25.25;17.85;;;;;;;;;;5069170;28;20037;-54
2023/06/10 01:28:48;;;;;;;19.55;16.80;;;;;;;;;;5051056;28;20390;-55
2023/06/10 01:31:17;;;;;;;20.67;16.35;;;;;;;;;;5069349;28;20024;-55
2023/06/10 01:33:46;;;;;;;19.02;16.85;;;;;;;;;;5069501;28;20394;-54
2023/06/10 01:36:12;;;;;;;18.42;16.42;;;;;;;;;;5069253;28;20051;-54
2023/06/10 01:38:43;;;;;;;21.10;17.85;;;;;;;;;;5068758;28;20028;-54
2023/06/10 01:41:11;;;;;;;20.88;18.25;;;;;;;;;;5068880;28;20031;-58
2023/06/10 01:43:38;;;;;;;22.35;18.00;;;;;;;;;;5068629;28;20489;-55
2023/06/10 01:46:04;;;;;;;21.83;18.67;;;;;;;;;;5069432;28;20098;-59
2023/06/10 01:48:30;;;;;;;21.48;18.80;;;;;;;;;;5069425;28;20058;-55
2023/06/10 01:50:56;;;;;;;21.35;18.10;;;;;;;;;;5069150;28;20051;-54
2023/06/10 01:53:23;;;;;;;21.27;17.35;;;;;;;;;;5069157;28;20012;-54
2023/06/10 01:55:49;;;;;;;18.20;15.77;;;;;;;;;;5068405;28;20024;-54
2023/06/10 01:58:15;;;;;;;21.23;17.73;;;;;;;;;;5069295;28;20025;-55
2023/06/10 02:00:41;;;;;;;21.00;16.75;;;;;;;;;;5068817;28;20466;-58
2023/06/10 02:03:07;;;;;;;22.17;18.38;;;;;;;;;;5068693;28;20032;-55
2023/06/10 02:05:33;;;;;;;21.08;16.77;;;;;;;;;;5068706;28;20538;-59
2023/06/10 02:08:00;;;;;;;24.42;17.52;;;;;;;;;;5068731;28;20036;-55
2023/06/10 02:10:26;;;;;;;20.75;17.35;;;461.60;2380.80;;;;;;5068622;28;20034;-58
2023/06/10 02:12:51;;;;;;;21.42;19.13;;;461.50;2380.80;;;;;;5069299;28;20024;-60
2023/06/10 02:15:17;;;;;;;22.30;19.55;;;461.20;2380.80;;;;;;5068545;28;20039;-55
2023/06/10 02:17:44;;;;;;;21.40;19.10;;;461.10;2380.80;;;;;;5068887;28;20101;-55
2023/06/10 02:20:10;;;;;;;22.95;19.00;;;460.90;2380.80;;;;;;5069214;28;20020;-55
2023/06/10 02:22:37;;;;;;;23.25;18.35;;;460.80;2380.80;;;;;;5072191;28;20031;-55
2023/06/10 02:25:04;;;;;;;24.70;20.40;;;460.90;2380.80;;;;;;5072404;28;20123;-60
2023/06/10 02:27:31;;;;;;;21.25;19.05;;;461.00;2380.80;;;;;;5072618;28;20099;-56
2023/06/10 02:29:57;;;;;;;23.20;18.73;;;461.10;2380.80;;;;;;5072569;28;20067;-57
2023/06/10 02:32:23;;;;;;;20.95;18.67;;;461.20;2380.80;;;;;;5072828;28;20029;-55
2023/06/10 02:34:49;;;;;;;22.77;18.13;;;461.40;2380.80;;;;;;5072290;28;20064;-55
2023/06/10 02:37:15;;;;;;;20.48;17.63;;;461.40;2380.80;;;;;;5072442;28;20021;-55
2023/06/10 02:39:41;;;;;;;19.73;17.70;;;461.40;2380.80;;;;;;5054950;28;20111;-55
2023/06/10 02:42:07;;;;;;;21.60;18.40;;;461.40;2380.80;;;;;;5072149;28;20145;-55
2023/06/10 02:44:33;;;;;;;24.00;19.13;;;461.50;2380.80;;;;;;5072127;28;20028;-55
2023/06/10 02:46:59;;;;;;;20.20;18.08;;;461.40;2380.80;;;;;;5072399;28;20186;-58
2023/06/10 02:49:27;;;;;;;27.00;18.20;;;461.50;2380.80;;;;;;5072458;28;20103;-55
2023/06/10 02:51:53;;;;;;;21.38;19.17;;;461.50;2380.80;;;;;;5072365;28;20478;-58
2023/06/10 02:54:23;;;;;;;20.33;18.23;;;461.50;2380.80;;;;;;5071895;28;20063;-59
2023/06/10 02:56:49;;;;;;;29.63;19.10;;;461.50;2380.80;;;;;;5071736;28;20024;-59
2023/06/10 02:59:15;;;;;;;25.00;18.73;;;461.50;2380.80;;;;;;5072457;28;20035;-55
2023/06/10 03:01:41;;;;;;;21.05;16.55;;;461.50;2380.80;;;;;;5072059;28;20501;-56
2023/06/10 03:04:08;;;;;;;21.30;17.42;;;461.50;2380.80;;;;;;5071894;28;20058;-54
2023/06/10 03:06:35;;;;;;;24.77;17.17;;;461.60;2380.80;;;;;;5071983;28;20032;-54
2023/06/10 03:09:01;;;;;;;19.98;16.92;;;461.60;2380.80;;;;;;5072125;28;20343;-56
2023/06/10 03:11:27;;;;;;;21.00;16.85;;;461.70;2380.80;;;;;;5071688;28;20382;-57
2023/06/10 03:13:55;;;;;;;20.30;17.67;;;461.70;2380.80;;;;;;5072101;28;20107;-54
2023/06/10 03:16:21;;;;;;;21.08;17.27;;;461.70;2380.80;;;;;;5071650;28;20066;-57
2023/06/10 03:18:47;;;;;;;23.05;17.65;;;461.70;2380.80;;;;;;5071909;28;20025;-55
2023/06/10 03:21:12;;;;;;;19.92;17.25;;;461.70;2380.80;;;;;;5071874;28;20035;-54
2023/06/10 03:23:38;;;;;;;20.73;17.27;;;461.70;2380.80;;;;;;5071478;28;20032;-60
2023/06/10 03:26:07;;;;;;;21.50;17.42;;;461.60;2380.80;;;;;;5071546;28;20457;-59
2023/06/10 03:28:33;;;;;;;22.83;18.58;;;461.70;2380.80;;;;;;5071765;28;20461;-58
2023/06/10 03:30:59;;;;;;;21.05;18.10;;;461.60;2380.80;;;;;;5071487;28;20111;-56
2023/06/10 03:33:24;;;;;;;22.08;17.75;;;461.70;2380.80;;;;;;5070563;28;20212;-57
2023/06/10 03:35:50;;;;;;;19.33;17.33;;;486.40;2380.80;;;;;;5070747;28;20075;-54
2023/06/10 03:38:16;;;;;;;22.90;17.33;;;486.50;2380.80;;;;;;5071128;28;20036;-55
2023/06/10 03:40:42;;;;;;;27.10;17.50;;;486.40;2380.80;;;;;;5071100;28;20021;-58
2023/06/10 03:43:08;;;;;;;18.38;16.35;;;486.50;2380.80;;;;;;5052955;28;20425;-55
2023/06/10 03:45:34;;;;;;;20.25;16.45;;;486.60;2380.80;;;;;;5071129;28;20095;-56
2023/06/10 03:48:01;;;;;;;18.95;16.90;;;486.70;2380.80;;;;;;5071546;28;20157;-55
2023/06/10 03:50:26;;;;;;;20.25;15.10;;;486.80;2380.80;;;;;;5070779;28;20025;-55
2023/06/10 03:52:52;;;;;;;17.30;15.50;;;486.90;2380.80;;;;;;5071404;28;20032;-54
2023/06/10 03:55:18;;;;;;;19.95;15.82;;;486.90;2380.80;;;;;;5071030;28;20028;-55
2023/06/10 03:57:43;;;;;;;19.40;17.15;;;487.00;2380.80;;;;;;5071260;28;20016;-54
2023/06/10 04:00:11;;;;;;;19.83;17.23;;;487.10;2380.80;;;;;;5071223;28;20060;-59
2023/06/10 04:02:41;;;;;;;18.63;16.02;;;487.20;2380.80;;;;;;5070846;28;20428;-55
2023/06/10 04:05:07;;;;;;;18.95;16.25;;;512.00;2380.80;;;;;;5070394;28;20040;-55
2023/06/10 04:07:34;;;;;;;17.52;15.32;;;512.10;2380.80;;;;;;5070840;28;20075;-55
2023/06/10 04:09:59;;;;;;;19.60;16.85;;;512.20;2380.80;;;;;;5070499;28;20052;-55
2023/06/10 04:12:25;;;;;;;19.05;15.25;;;512.40;2380.80;;;;;;5070766;28;20056;-55
2023/06/10 04:14:52;;;;;;;21.67;15.98;;;512.50;2380.80;;;;;;5070610;28;20086;-54
2023/06/10 04:17:17;;;;;;;19.20;16.02;;;512.70;2380.80;;;;;;5070501;28;20024;-55
2023/06/10 04:19:43;;;;;;;19.60;16.77;;;512.90;2380.80;;;;;;5070660;28;20024;-54
2023/06/10 04:22:09;;;;;;;18.27;16.40;;;512.80;2380.80;;;;;;5070438;28;20107;-54
2023/06/10 04:24:35;;;;;;;16.95;15.25;;;512.80;2380.80;;;;;;5070349;28;20040;-59
2023/06/10 04:27:01;;;;;;;17.75;15.93;;;512.90;2380.80;;;;;;5070688;28;20394;-55
2023/06/10 04:29:27;;;;;;;19.75;15.73;;;537.60;2406.40;;;;;;5070054;28;20028;-55
2023/06/10 04:31:52;;;;;;;18.75;16.60;;;538.00;2406.40;;;;;;5070931;28;20031;-54
2023/06/10 04:34:18;;;;;;;19.13;15.32;;;538.30;2406.40;;;;;;5070080;28;20086;-55
2023/06/10 04:36:44;;;;;;;20.02;14.70;;;538.30;2406.40;;;;;;5070851;28;20032;-59
2023/06/10 04:39:09;;;;;;;18.13;16.17;;;538.20;2406.40;;;;;;5069581;28;20119;-54
2023/06/10 04:41:35;;;;;;;16.17;14.52;;;538.20;2406.40;;;;;;5069852;28;20047;-56
2023/06/10 04:44:01;;;;;;;17.13;15.13;;;538.10;2406.40;;;;;;5069623;28;20055;-54
2023/06/10 04:46:26;;;;;;;16.70;14.80;;;537.90;2406.40;;;;;;5069839;28;20081;-55
2023/06/10 04:48:54;;;;;;;20.50;15.23;;;537.80;2406.40;;;;;;5069519;28;20101;-61
2023/06/10 04:51:19;;;;;;;16.77;14.52;;;537.90;2406.40;;;;;;5069920;28;20037;-54
2023/06/10 04:53:45;;;;;;;18.30;16.02;;;537.70;2406.40;;;;;;5068958;28;20025;-54
2023/06/10 04:56:11;;;;;;;21.25;15.20;;;538.00;2406.40;;;;;;5070092;28;20028;-53
2023/06/10 04:58:36;;;;;;;18.08;16.00;;;538.10;2406.40;;;;;;5069429;28;20028;-61
2023/06/10 05:01:02;;;;;;;21.27;15.85;;;538.20;2406.40;;;;;;5070000;28;20025;-53
2023/06/10 05:03:28;;;;;;;16.85;15.15;;;538.30;2406.40;;;;;;5069708;28;20030;-58
2023/06/10 05:05:54;;;;;;;19.40;14.88;;;538.40;2406.40;;;;;;5070061;28;20506;-54
2023/06/10 05:08:20;;;;;;;18.50;14.05;;;563.70;2432.00;;;;;;5069462;28;20070;-54
2023/06/10 05:10:46;;;;;;;15.35;13.82;;;666.00;2432.00;;;;;;5069447;28;20457;-54
2023/06/10 05:13:12;;;;;;;14.02;12.60;;;;;;;;;;5069543;28;20056;-60
2023/06/10 05:15:37;;;;;;;15.90;14.30;;;742.40;2201.60;;;;;;5069494;28;20035;-60
2023/06/10 05:18:03;;;;;;;16.80;14.18;;;768.60;1996.80;;;;;;5070027;28;20028;-61
2023/06/10 05:20:29;;;;;;;16.02;14.38;;;819.40;1894.40;;;;;;5069206;28;20025;-58
2023/06/10 05:22:55;;;;;;;14.27;12.88;;;743.10;2022.40;;;;;;5069238;28;20591;-54
2023/06/10 05:25:21;;;;;;;14.45;12.98;;;768.20;1996.80;;;;;;5069087;28;20486;-55
2023/06/10 05:27:47;;;;;;;24.05;14.40;;;768.60;1971.20;;;;;;5069246;28;20029;-54
2023/06/10 05:30:13;;;;;;;14.95;13.40;;;819.70;1843.20;;;;;;5069363;28;20606;-54
2023/06/10 05:32:38;;;;;;;15.38;13.77;;;819.60;1843.20;;;;;;5069478;28;20017;-58
2023/06/10 05:35:06;;;;;;;15.40;13.77;;;;;;;;;;5069193;28;20240;-61
2023/06/10 05:37:33;;;;;;;15.85;13.88;;;870.70;1715.20;;;;;;5051788;28;20020;-54
2023/06/10 05:39:59;;;;;;;16.08;13.18;;;896.40;1638.40;;;;;;5068957;28;20047;-54
2023/06/10 05:42:24;;;;;;;16.65;13.77;;;845.20;1740.80;;;;;;5069499;28;20506;-55
2023/06/10 05:44:50;;;;;;;16.73;13.10;;;;;;;;;;5068978;28;20044;-54
2023/06/10 05:47:16;;;;;;;15.90;14.18;;;;;;;;;;5069164;28;20440;-55
2023/06/10 05:49:42;;;;;;;15.32;13.80;;;768.20;1945.60;;;;;;5069306;28;20043;-54
2023/06/10 05:52:08;;;;;;;15.82;14.30;;;743.00;1971.20;;;;;;5069076;28;20029;-61
2023/06/10 05:54:33;;;;;;;17.42;14.07;;;794.20;1868.80;;;;;;5068929;28;20017;-61
2023/06/10 05:56:59;;;;;;;15.63;14.15;;;870.50;1740.80;;;;;;5068282;28;20089;-56
2023/06/10 05:59:25;;;;;;;16.52;14.88;;;896.00;1664.00;;;;;;5068518;28;20518;-56
2023/06/10 06:01:50;;;;;;;15.07;13.63;;;896.90;1612.80;;;;;;5057936;28;20047;-59
2023/06/10 06:04:16;;;;;;;108.93;98.32;;;922.40;1561.60;;;;;;5048846;28;20048;-56
2023/06/10 06:06:42;;;;;;;28.73;26.08;;;973.00;1484.80;;;;;;5049144;28;20360;-61
2023/06/10 06:09:08;;;;;;;37.78;34.70;;;;;;;;;;5048744;28;20028;-55
2023/06/10 06:11:35;;;;;;;42.80;39.53;;;973.60;1459.20;;;;;;5048970;28;20025;-55
2023/06/10 06:14:01;;;;;;;15.25;13.95;;;998.90;1408.00;;;;;;5048583;28;20056;-58
2023/06/10 06:16:26;;;;;;;19.15;17.50;;;1024.20;1382.40;;;;;;5048408;28;20071;-61
2023/06/10 06:18:52;;;;;;;25.65;23.27;;;;;;;;;;5050207;28;20086;-56
2023/06/10 06:21:19;;;;;;;14.70;13.45;;;;;;;;;;5068874;28;20013;-61
2023/06/10 06:23:44;;;;;;;14.10;12.80;;;1024.30;1382.40;;;;;;5068965;28;20488;-55
2023/06/10 06:26:10;;;;;;;14.15;12.80;;;1101.30;1254.40;;;;;;5068772;28;20399;-56
2023/06/10 06:28:35;;;;;;;14.70;13.50;;;1126.40;1254.40;;;;;;5068946;28;20485;-61
2023/06/10 06:31:01;;;;;;;16.70;15.00;;;1126.60;1228.80;;;;;;5068648;28;20138;-56
2023/06/10 06:33:29;;;;;;;16.40;15.00;;;1127.00;1203.20;;;;;;5068701;28;20348;-56
2023/06/10 06:35:55;;;;;;;21.60;19.75;;;1126.90;1203.20;;;;;;5068492;28;20060;-56
2023/06/10 06:38:21;;;;;;;13.57;12.48;;;1101.50;1228.80;;;;;;5068579;28;20037;-58
2023/06/10 06:40:46;;;;;;;13.68;12.30;;;1126.40;1228.80;;;;;;5068544;28;20104;-61
2023/06/10 06:43:12;;;;;;;15.35;13.90;;;1076.10;1203.20;;;;;;5068621;28;20047;-61
2023/06/10 06:45:38;;;;;;;12.57;11.25;;;1075.90;1228.80;;;;;;5068413;28;20032;-56
2023/06/10 06:48:04;;;;;;;12.02;10.82;;;999.30;1356.80;;;;;;5068425;28;20444;-57
2023/06/10 06:50:30;;;;;;;11.93;10.73;;;1024.70;1305.60;;;;;;5068525;28;20040;-61
2023/06/10 06:52:56;;;;;;;11.73;10.55;;;973.00;1356.80;;;;;;5068120;28;20103;-56
2023/06/10 06:55:21;;;;;;;12.18;11.05;;;922.00;1459.20;;;;;;5068344;28;20021;-56
2023/06/10 06:57:47;;;;;;;14.88;11.80;;;871.10;1536.00;;;;;;5068500;28;20078;-56
2023/06/10 07:00:13;;;;;;;14.90;13.30;;;845.70;1612.80;;;;;;5068525;28;20115;-58
2023/06/10 07:02:39;;;;;;;20.25;17.30;;;845.70;1638.40;;;;;;5068473;28;20115;-59
2023/06/10 07:05:05;;;;;;;13.77;12.48;;;947.20;1459.20;;;;;;5068177;28;20040;-54
2023/06/10 07:07:31;;;;;;;15.85;11.93;;;947.50;1459.20;;;;;;5070046;28;20047;-54
2023/06/10 07:09:56;;;;;;;12.52;11.40;;;922.00;1510.40;;;;;;5053520;28;20526;-53
2023/06/10 07:12:23;;;;;;;13.10;11.80;;;922.00;1536.00;;;;;;5072335;28;20348;-53
2023/06/10 07:14:50;;;;;;;17.83;13.50;;;947.60;1459.20;;;;;;5071742;28;20035;-59
2023/06/10 07:17:17;;;;;;;12.68;11.55;;;1024.00;1331.20;;;;;;5071624;28;20017;-62
2023/06/10 07:19:44;;;;;;;16.73;13.63;;;1050.20;1280.00;;;;;;5071891;28;20028;-64
2023/06/10 07:22:09;;;;;;;14.02;12.60;;;1075.60;1228.80;;;;;;5071877;28;20016;-64
2023/06/10 07:24:35;;;;;;;13.90;12.70;;;1101.40;1203.20;;;;;;5071217;28;20612;-66
2023/06/10 07:27:01;;;;;;;14.13;13.10;;;1152.00;1177.60;;;;;;5071850;28;20058;-66
2023/06/10 07:29:26;;;;;;;13.02;11.85;;;1152.90;1126.40;;;;;;5071623;28;20024;-66
2023/06/10 07:31:53;;;;;;;12.07;11.18;;;1178.50;1100.80;;;;;;5071940;28;20025;-68
2023/06/10 07:34:19;;;;;;;13.23;12.18;;;1203.60;1075.20;;;;;;5071095;28;20108;-66
2023/06/10 07:36:44;;;;;;;12.98;12.00;;;1204.10;1075.20;;;;;;5071826;28;20107;-68
2023/06/10 07:39:10;;;;;;;12.30;11.50;;;1229.30;1049.60;;;;;;5071368;28;20097;-66
2023/06/10 07:41:36;;;;;;;11.32;10.23;;;1254.90;1049.60;;;;;;5071305;28;20025;-65
2023/06/10 07:44:02;;;;;;;12.75;11.65;;;1178.00;1075.20;;;;;;5071402;28;20033;-65
2023/06/10 07:46:28;;;;;;;14.07;11.13;;;1127.00;1152.00;;;;;;5071409;28;20123;-64
2023/06/10 07:48:54;;;;;;;11.38;10.48;;;1050.50;1203.20;;;;;;5071479;28;20099;-65
2023/06/10 07:51:21;;;;;;;10.50;9.50;;;1075.80;1152.00;;;;;;5071285;28;20066;-64
2023/06/10 07:53:46;;;;;;;12.85;11.82;;;1024.30;1254.40;;;;;;5070620;28;20074;-65
2023/06/10 07:56:12;;;;;;;12.73;11.43;;;1024.50;1228.80;;;;;;5068731;28;20091;-65
2023/06/10 07:58:38;;;;;;;11.18;10.35;;;1101.60;1177.60;;;;;;5069114;28;20027;-66
2023/06/10 08:01:04;;;;;;;12.77;11.82;;;1152.10;1126.40;;;;;;5069600;28;20028;-64
2023/06/10 08:03:30;;;;;;;13.07;11.98;;;1127.10;1126.40;;;;;;5069437;28;20024;-64
2023/06/10 08:05:56;;;;;;;13.25;12.00;;;1126.70;1126.40;;;;;;5069683;28;20494;-67
2023/06/10 08:08:21;;;;;;;12.82;11.93;;;1127.30;1100.80;;;;;;5069019;28;20390;-64
2023/06/10 08:10:49;;;;;;;12.35;11.40;;;1101.60;1126.40;;;;;;5069337;28;20025;-65
2023/06/10 08:13:15;;;;;;;12.20;11.00;;;1050.30;1203.20;;;;;;5055106;28;20057;-65
2023/06/10 08:15:40;;;;;;;12.82;11.82;;;999.30;1254.40;;;;;;5069344;28;20526;-66
2023/06/10 08:18:06;;;;;;;12.45;11.25;;;973.20;1331.20;;;;;;5068624;28;20039;-64
2023/06/10 08:20:32;;;;;;;12.93;11.40;;;922.20;1382.40;;;;;;5068814;28;20024;-65
2023/06/10 08:22:57;;;;;;;12.75;11.48;;;896.30;1433.60;;;;;;5068912;28;20386;-66
2023/06/10 08:25:23;;;;;;;13.60;12.20;;;871.30;1459.20;;;;;;5065822;28;20389;-66
2023/06/10 08:27:50;;;;;;;11.18;9.73;;;896.00;1484.80;;;;;;5058271;28;20027;-64
2023/06/10 08:30:16;;;;;;;12.18;10.98;;;896.40;1459.20;;;;;;5070510;28;20032;-63
2023/06/10 08:32:42;;;;;;;11.88;10.88;;;896.20;1484.80;;;;;;5070552;28;20051;-62
2023/06/10 08:35:08;;;;;;;12.95;11.82;;;870.40;1536.00;;;;;;5069859;28;20447;-63
2023/06/10 08:37:33;;;;;;;12.65;11.50;;;845.00;1561.60;;;;;;5070345;28;20016;-61
2023/06/10 08:39:59;;;;;;;13.30;10.48;;;845.20;1561.60;;;;;;5070333;28;20112;-61
2023/06/10 08:42:33;;;;;;;11.93;10.80;;;845.40;1536.00;;;;;;5051931;28;20384;-65
2023/06/10 08:45:02;;;;;;;12.80;11.57;;;870.50;1536.00;;;;;;5069960;28;20077;-64
2023/06/10 08:47:35;;;;;;;13.85;12.68;;;870.50;1612.80;;;;;;5070114;28;20091;-62
2023/06/10 08:50:03;;;;;;;15.80;14.23;;;845.60;1612.80;;;;;;5070203;28;20020;-62
2023/06/10 08:52:35;;;;;;;13.32;11.95;;;844.90;1664.00;;;;;;5069970;28;20402;-64
2023/06/10 08:55:05;;;;;;;13.20;11.98;;;819.90;1638.40;;;;;;5069862;28;20025;-62
2023/06/10 08:57:31;;;;;;;12.90;11.68;;;819.50;1664.00;;;;;;5070362;28;20028;-64
2023/06/10 08:59:58;;;;;;;12.60;11.50;;;794.30;1715.20;;;;;;5069251;28;20017;-62
2023/06/10 09:02:24;;;;;;;13.32;12.13;;;794.10;1715.20;;;;;;5069846;28;20025;-63
2023/06/10 09:04:51;;;;;;;13.93;12.73;;;794.10;1715.20;;;;;;5068988;28;20054;-63
2023/06/10 09:07:17;;;;;;;13.65;12.35;;;794.00;1766.40;;;;;;5069504;28;20027;-64
2023/06/10 09:09:44;;;;;;;14.90;12.93;;;793.80;1766.40;;;;;;5069786;28;20024;-64
2023/06/10 09:12:12;;;;;;;12.40;11.20;;;793.90;1766.40;;;;;;5069766;28;20052;-62
2023/06/10 09:14:37;;;;;;;13.15;11.85;;;794.20;1740.80;;;;;;5069457;28;20035;-65
2023/06/10 09:17:05;;;;;;;13.43;11.52;;;793.90;1740.80;;;;;;5069495;28;20103;-63
2023/06/10 09:19:31;;;;;;;12.82;11.63;;;768.70;1740.80;;;;;;5069754;28;20547;-63
2023/06/10 09:21:58;;;;;;;12.65;11.45;;;793.70;1740.80;;;;;;5068938;28;20494;-63
2023/06/10 09:24:25;;;;;;;14.23;10.82;;;794.50;1766.40;;;;;;5069007;28;20037;-64
2023/06/10 09:27:01;;;;;;;13.75;12.27;;;819.30;1689.60;;;;;;5069080;28;20035;-64
2023/06/10 09:29:27;;;;;;;13.13;11.93;;;819.40;1689.60;;;;;;5069143;28;20017;-64
2023/06/10 09:31:52;;;;;;;13.25;11.98;;;819.60;1715.20;;;;;;5068631;28;20029;-64
2023/06/10 09:34:18;;;;;;;12.48;11.38;;;819.30;1689.60;;;;;;5068610;28;20031;-60
2023/06/10 09:36:45;;;;;;;12.70;11.40;;;794.50;1689.60;;;;;;5069075;28;20071;-64
2023/06/10 09:39:18;;;;;;;12.23;11.07;;;794.50;1664.00;;;;;;5051926;28;20033;-60
2023/06/10 09:41:45;;;;;;;11.57;10.57;;;794.50;1689.60;;;;;;5049340;28;20057;-60
2023/06/10 09:44:16;;;;;;;12.73;11.52;;;794.20;1689.60;;;;;;5049093;28;20025;-61
2023/06/10 09:46:44;;;;;;;11.60;10.60;;;768.50;1715.20;;;;;;5049318;28;20024;-60
2023/06/10 09:49:10;;;;;;;12.43;11.32;;;768.50;1740.80;;;;;;5059901;28;20033;-60
2023/06/10 09:51:36;;;;;;;13.80;11.73;;;768.50;1792.00;;;;;;5068114;28;20507;-64
2023/06/10 09:54:05;;;;;;;13.60;12.43;;;743.30;1843.20;;;;;;5068900;28;20020;-64
2023/06/10 09:56:37;;;;;;;15.55;11.25;;;743.30;1817.60;;;;;;5068987;28;20374;-65
2023/06/10 09:59:06;;;;;;;12.40;11.20;;;768.40;1792.00;;;;;;5068930;28;20016;-64
2023/06/10 10:01:33;;;;;;;13.05;11.85;;;768.50;1792.00;;;;;;5069151;28;20108;-64
2023/06/10 10:03:59;;;;;;;12.52;11.25;;;768.10;1792.00;;;;;;5068295;28;20029;-65
2023/06/10 10:06:26;;;;;;;12.00;10.93;;;768.40;1792.00;;;;;;5068978;28;20039;-64
2023/06/10 10:08:51;;;;;;;12.80;11.70;;;743.00;1843.20;;;;;;5069315;28;20355;-64
2023/06/10 10:11:21;;;;;;;12.77;11.55;;;768.10;1843.20;;;;;;5068886;28;20043;-64
2023/06/10 10:13:49;;;;;;;13.95;11.25;;;743.00;1868.80;;;;;;5068826;28;20024;-67
2023/06/10 10:16:20;;;;;;;13.05;11.63;;;742.90;1868.80;;;;;;5068907;28;20571;-65
2023/06/10 10:18:54;;;;;;;13.57;12.18;;;743.00;1894.40;;;;;;5056522;28;20071;-65
2023/06/10 10:21:24;;;;;;;18.95;13.70;;;742.90;1894.40;;;;;;5068825;28;20111;-63
2023/06/10 10:23:55;;;;;;;12.88;11.70;;;742.50;1945.60;;;;;;5068623;28;20516;-64
2023/06/10 10:26:22;;;;;;;12.32;11.15;;;742.90;1945.60;;;;;;5068745;28;20032;-63
2023/06/10 10:28:56;;;;;;;13.73;12.30;;;742.90;1920.00;;;;;;5068695;28;20074;-65
2023/06/10 10:31:23;;;;;;;13.70;12.30;;;743.00;1894.40;;;;;;5068864;28;20458;-63
2023/06/10 10:33:58;;;;;;;11.57;10.48;;;742.90;1894.40;;;;;;5068411;28;20028;-64
2023/06/10 10:36:25;;;;;;;11.68;10.60;;;743.10;1740.80;;;;;;5068596;28;20040;-64
2023/06/10 10:38:51;;;;;;;12.00;11.00;;;743.00;1740.80;;;;;;5068540;28;20039;-64
2023/06/10 10:41:18;;;;;;;12.88;11.55;;;742.50;1817.60;;;;;;5068349;28;20023;-65
2023/06/10 10:43:45;;;;;;;13.73;12.25;;;;;;;;;;5072387;28;20031;-64
2023/06/10 10:46:15;;;;;;;14.15;11.48;;;;;;;;;;5072366;28;20037;-63
2023/06/10 10:48:41;;;;;;;13.18;11.70;;;;;;;;;;5072428;28;20048;-64
2023/06/10 10:51:07;;;;;;;10.02;9.02;;;742.50;1971.20;;;;;;5059066;28;20034;-63
2023/06/10 10:53:33;;;;;;;13.13;8.98;;;;;;;;;;5071849;28;20378;-64
2023/06/10 10:56:09;;;;;;;10.35;9.23;;;716.80;1971.20;;;;;;5072545;28;20099;-64
2023/06/10 10:58:35;;;;;;;9.27;8.40;;;691.70;1971.20;;;;;;5072223;28;20060;-65
2023/06/10 11:01:14;;;;;;;11.02;9.93;;;692.10;1996.80;;;;;;5072328;28;20113;-64
2023/06/10 11:03:47;;;;;;;11.23;10.05;;;716.80;2124.80;;;;;;5071956;28;20521;-64
2023/06/10 11:06:17;;;;;;;12.45;11.15;;;717.10;2124.80;;;;;;5072279;28;20044;-64
2023/06/10 11:08:43;;;;;;;11.38;10.18;;;717.50;2099.20;;;;;;5071881;28;20021;-64
2023/06/10 11:11:20;;;;;;;12.27;10.55;;;717.60;2124.80;;;;;;5071992;28;20039;-65
2023/06/10 11:14:04;;;;;;;12.30;11.10;;;717.60;2124.80;;;;;;5071779;28;20008;-65
2023/06/10 11:16:30;;;;;;;12.40;11.25;;;717.50;2176.00;;;;;;5071629;28;20111;-66
2023/06/10 11:18:56;;;;;;;11.25;10.15;;;717.60;2099.20;;;;;;5071734;28;20021;-66
2023/06/10 11:21:25;;;;;;;10.80;9.70;;;742.40;1996.80;;;;;;5071598;28;20029;-64
2023/06/10 11:23:51;;;;;;;12.30;11.02;;;717.40;1920.00;;;;;;5071766;28;20497;-66
2023/06/10 11:26:17;;;;;;;14.95;10.35;;;742.40;1996.80;;;;;;5071457;28;20111;-65
2023/06/10 11:29:06;;;;;;;11.18;10.02;;;717.40;1920.00;;;;;;5071876;28;20344;-66
2023/06/10 11:31:43;;;;;;;11.13;10.23;;;717.50;1894.40;;;;;;5071699;28;20078;-66
2023/06/10 11:34:09;;;;;;;10.80;9.80;;;717.50;1945.60;;;;;;5071186;28;20032;-65
2023/06/10 11:36:42;;;;;;;12.90;10.95;;;742.40;1920.00;;;;;;5070998;28;20127;-65
2023/06/10 11:39:08;;;;;;;11.82;9.25;;;742.60;1945.60;;;;;;5071239;28;20067;-65
2023/06/10 11:41:35;;;;;;;9.40;7.72;;;742.50;1868.80;;;;;;5071674;28;20032;-64
2023/06/10 11:44:08;;;;;;;9.73;8.82;;;742.60;1792.00;;;;;;5070864;28;20028;-65
2023/06/10 11:46:34;;;;;;;9.57;8.73;;;742.40;1868.80;;;;;;5071166;28;20028;-65
2023/06/10 11:49:02;;;;;;;9.35;8.13;;;742.70;1843.20;;;;;;5070966;28;20029;-65
2023/06/10 11:51:34;;;;;;;10.65;9.65;;;742.50;1843.20;;;;;;5071292;28;20025;-65
2023/06/10 11:54:00;;;;;;;10.47;9.47;;;742.70;1945.60;;;;;;5070188;28;20024;-65
2023/06/10 11:56:27;;;;;;;10.20;9.20;;;742.60;2048.00;;;;;;5070823;28;20024;-66
2023/06/10 11:59:05;;;;;;;12.80;10.77;;;742.50;2022.40;;;;;;5071452;28;20032;-66
2023/06/10 12:01:33;;;;;;;11.10;10.00;;;742.50;2073.60;;;;;;5071121;28;20028;-66
2023/06/10 12:04:01;;;;;;;10.02;9.13;;;742.60;2048.00;;;;;;5070508;28;20036;-65
2023/06/10 12:06:26;;;;;;;9.70;8.77;;;742.80;2022.40;;;;;;5070939;28;20040;-65
2023/06/10 12:08:54;;;;;;;9.90;9.00;;;742.80;1996.80;;;;;;5070524;28;20382;-66
2023/06/10 12:11:20;;;;;;;10.40;9.50;;;742.90;2022.40;;;;;;5070716;28;20033;-65
2023/06/10 12:13:50;;;;;;;10.07;9.18;;;742.60;2073.60;;;;;;5070954;28;20012;-65
2023/06/10 12:16:16;;;;;;;10.57;9.30;;;742.80;2124.80;;;;;;5070337;28;20020;-65
2023/06/10 12:18:46;;;;;;;7.10;6.40;;;743.00;2048.00;;;;;;5070821;28;20074;-65
2023/06/10 12:21:20;;;;;;;8.68;7.05;;;743.00;1920.00;;;;;;5070717;28;20420;-65
2023/06/10 12:24:07;;;;;;;7.80;7.00;;;743.00;1971.20;;;;;;5070277;28;20029;-66